sensor_id;sensor_type;location;lat;lon;timestamp;pressure;altitude;pressure_sealevel;temperature
18713;BMP280;9485;49.386;8.674;2022-07-06T00:02:12;100982.84;;;21.92
18713;BMP280;9485;49.386;8.674;2022-07-06T00:07:32;100989.81;;;21.76
18713;BMP280;9485;49.386;8.674;2022-07-06T00:12:53;100996.03;;;21.67
18713;BMP280;9485;49.386;8.674;2022-07-06T00:18:15;101003.59;;;21.57
18713;BMP280;9485;49.386;8.674;2022-07-06T00:23:35;100998.50;;;21.50
18713;BMP280;9485;49.386;8.674;2022-07-06T00:28:56;101006.84;;;21.41
18713;BMP280;9485;49.386;8.674;2022-07-06T00:34:18;101005.00;;;21.30
18713;BMP280;9485;49.386;8.674;2022-07-06T00:39:38;101005.47;;;21.21
18713;BMP280;9485;49.386;8.674;2022-07-06T00:44:59;101003.06;;;21.13
18713;BMP280;9485;49.386;8.674;2022-07-06T00:50:21;101005.06;;;21.05
18713;BMP280;9485;49.386;8.674;2022-07-06T00:55:43;101012.06;;;20.96
18713;BMP280;9485;49.386;8.674;2022-07-06T01:01:04;101003.88;;;20.87
18713;BMP280;9485;49.386;8.674;2022-07-06T01:06:26;101015.28;;;20.80
18713;BMP280;9485;49.386;8.674;2022-07-06T01:11:48;101013.25;;;20.75
18713;BMP280;9485;49.386;8.674;2022-07-06T01:17:08;101012.59;;;20.69
18713;BMP280;9485;49.386;8.674;2022-07-06T01:22:30;101010.72;;;20.58
18713;BMP280;9485;49.386;8.674;2022-07-06T01:27:51;101009.41;;;20.46
18713;BMP280;9485;49.386;8.674;2022-07-06T01:33:11;101008.50;;;20.38
18713;BMP280;9485;49.386;8.674;2022-07-06T01:38:46;101016.69;;;20.35
18713;BMP280;9485;49.386;8.674;2022-07-06T01:44:08;101012.78;;;20.32
18713;BMP280;9485;49.386;8.674;2022-07-06T01:49:30;101012.34;;;20.28
18713;BMP280;9485;49.386;8.674;2022-07-06T01:54:52;101005.41;;;20.24
18713;BMP280;9485;49.386;8.674;2022-07-06T02:00:14;101002.41;;;20.16
18713;BMP280;9485;49.386;8.674;2022-07-06T02:05:40;101006.13;;;20.11
18713;BMP280;9485;49.386;8.674;2022-07-06T02:11:03;101011.19;;;20.05
18713;BMP280;9485;49.386;8.674;2022-07-06T02:16:26;101012.09;;;20.00
18713;BMP280;9485;49.386;8.674;2022-07-06T02:21:46;101005.13;;;19.96
18713;BMP280;9485;49.386;8.674;2022-07-06T02:27:08;101009.16;;;19.87
18713;BMP280;9485;49.386;8.674;2022-07-06T02:32:29;101023.88;;;19.78
18713;BMP280;9485;49.386;8.674;2022-07-06T02:37:50;101021.41;;;19.69
18713;BMP280;9485;49.386;8.674;2022-07-06T02:43:11;101022.59;;;19.61
18713;BMP280;9485;49.386;8.674;2022-07-06T02:48:34;101018.28;;;19.55
18713;BMP280;9485;49.386;8.674;2022-07-06T02:53:54;101016.81;;;19.48
18713;BMP280;9485;49.386;8.674;2022-07-06T02:59:17;101029.16;;;19.43
18713;BMP280;9485;49.386;8.674;2022-07-06T03:04:38;101039.88;;;19.37
18713;BMP280;9485;49.386;8.674;2022-07-06T03:09:58;101050.91;;;19.33
18713;BMP280;9485;49.386;8.674;2022-07-06T03:15:21;101045.22;;;19.28
18713;BMP280;9485;49.386;8.674;2022-07-06T03:20:42;101041.69;;;19.22
18713;BMP280;9485;49.386;8.674;2022-07-06T03:26:06;101058.63;;;19.20
18713;BMP280;9485;49.386;8.674;2022-07-06T03:31:28;101070.88;;;19.20
18713;BMP280;9485;49.386;8.674;2022-07-06T03:36:49;101065.91;;;19.21
18713;BMP280;9485;49.386;8.674;2022-07-06T03:42:10;101062.81;;;19.19
18713;BMP280;9485;49.386;8.674;2022-07-06T03:47:32;101048.34;;;19.11
18713;BMP280;9485;49.386;8.674;2022-07-06T03:52:53;101063.88;;;19.16
18713;BMP280;9485;49.386;8.674;2022-07-06T03:58:14;101066.00;;;19.15
18713;BMP280;9485;49.386;8.674;2022-07-06T04:03:36;101071.41;;;19.19
18713;BMP280;9485;49.386;8.674;2022-07-06T04:08:57;101070.88;;;19.20
18713;BMP280;9485;49.386;8.674;2022-07-06T04:14:17;101073.09;;;19.27
18713;BMP280;9485;49.386;8.674;2022-07-06T04:19:39;101076.13;;;19.35
18713;BMP280;9485;49.386;8.674;2022-07-06T04:24:59;101069.00;;;19.41
18713;BMP280;9485;49.386;8.674;2022-07-06T04:30:21;101067.91;;;19.44
18713;BMP280;9485;49.386;8.674;2022-07-06T04:35:44;101077.53;;;19.47
18713;BMP280;9485;49.386;8.674;2022-07-06T04:41:05;101077.75;;;19.49
18713;BMP280;9485;49.386;8.674;2022-07-06T04:46:25;101083.94;;;19.53
18713;BMP280;9485;49.386;8.674;2022-07-06T04:51:48;101096.09;;;19.59
18713;BMP280;9485;49.386;8.674;2022-07-06T04:57:09;101089.28;;;19.61
18713;BMP280;9485;49.386;8.674;2022-07-06T05:02:30;101092.84;;;19.67
18713;BMP280;9485;49.386;8.674;2022-07-06T05:07:52;101099.34;;;19.68
18713;BMP280;9485;49.386;8.674;2022-07-06T05:13:13;101103.22;;;19.70
18713;BMP280;9485;49.386;8.674;2022-07-06T05:18:34;101096.09;;;19.77
18713;BMP280;9485;49.386;8.674;2022-07-06T05:23:57;101101.41;;;19.86
18713;BMP280;9485;49.386;8.674;2022-07-06T05:29:18;101107.06;;;19.91
18713;BMP280;9485;49.386;8.674;2022-07-06T05:34:39;101103.59;;;19.98
18713;BMP280;9485;49.386;8.674;2022-07-06T05:40:01;101103.25;;;20.02
18713;BMP280;9485;49.386;8.674;2022-07-06T05:45:22;101105.72;;;20.11
18713;BMP280;9485;49.386;8.674;2022-07-06T05:50:43;101121.97;;;20.21
18713;BMP280;9485;49.386;8.674;2022-07-06T05:56:06;101121.56;;;20.30
18713;BMP280;9485;49.386;8.674;2022-07-06T06:01:28;101123.00;;;20.37
18713;BMP280;9485;49.386;8.674;2022-07-06T06:06:59;101119.97;;;20.47
18713;BMP280;9485;49.386;8.674;2022-07-06T06:12:21;101130.78;;;20.54
18713;BMP280;9485;49.386;8.674;2022-07-06T06:17:42;101121.88;;;20.58
18713;BMP280;9485;49.386;8.674;2022-07-06T06:23:03;101134.00;;;20.64
18713;BMP280;9485;49.386;8.674;2022-07-06T06:28:25;101131.75;;;20.75
18713;BMP280;9485;49.386;8.674;2022-07-06T06:33:45;101142.00;;;20.84
18713;BMP280;9485;49.386;8.674;2022-07-06T06:39:06;101145.78;;;20.92
18713;BMP280;9485;49.386;8.674;2022-07-06T06:44:28;101136.72;;;21.01
18713;BMP280;9485;49.386;8.674;2022-07-06T06:49:49;101155.94;;;21.06
18713;BMP280;9485;49.386;8.674;2022-07-06T06:55:09;101151.75;;;21.19
18713;BMP280;9485;49.386;8.674;2022-07-06T07:00:32;101150.97;;;21.32
18713;BMP280;9485;49.386;8.674;2022-07-06T07:05:52;101159.78;;;21.47
18713;BMP280;9485;49.386;8.674;2022-07-06T07:11:13;101156.38;;;21.61
18713;BMP280;9485;49.386;8.674;2022-07-06T07:16:35;101166.06;;;21.84
18713;BMP280;9485;49.386;8.674;2022-07-06T07:21:55;101155.50;;;22.20
18713;BMP280;9485;49.386;8.674;2022-07-06T07:27:16;101153.44;;;23.37
18713;BMP280;9485;49.386;8.674;2022-07-06T07:32:38;101165.41;;;25.01
18713;BMP280;9485;49.386;8.674;2022-07-06T07:37:59;101178.41;;;26.72
18713;BMP280;9485;49.386;8.674;2022-07-06T07:43:20;101169.88;;;27.90
18713;BMP280;9485;49.386;8.674;2022-07-06T07:48:42;101162.34;;;29.02
18713;BMP280;9485;49.386;8.674;2022-07-06T07:54:04;101171.19;;;30.06
18713;BMP280;9485;49.386;8.674;2022-07-06T07:59:25;101180.34;;;30.80
18713;BMP280;9485;49.386;8.674;2022-07-06T08:04:47;101173.28;;;31.13
18713;BMP280;9485;49.386;8.674;2022-07-06T08:10:09;101170.66;;;31.38
18713;BMP280;9485;49.386;8.674;2022-07-06T08:15:30;101179.38;;;32.01
18713;BMP280;9485;49.386;8.674;2022-07-06T08:20:52;101177.56;;;31.96
18713;BMP280;9485;49.386;8.674;2022-07-06T08:26:16;101180.47;;;31.96
18713;BMP280;9485;49.386;8.674;2022-07-06T08:31:36;101179.59;;;32.25
18713;BMP280;9485;49.386;8.674;2022-07-06T08:36:58;101172.38;;;32.38
18713;BMP280;9485;49.386;8.674;2022-07-06T08:42:19;101175.66;;;32.32
18713;BMP280;9485;49.386;8.674;2022-07-06T08:47:42;101181.09;;;32.59
18713;BMP280;9485;49.386;8.674;2022-07-06T08:53:05;101183.91;;;32.80
18713;BMP280;9485;49.386;8.674;2022-07-06T08:58:26;101191.78;;;32.66
18713;BMP280;9485;49.386;8.674;2022-07-06T09:03:50;101189.63;;;32.78
18713;BMP280;9485;49.386;8.674;2022-07-06T09:09:19;101198.66;;;32.70
18713;BMP280;9485;49.386;8.674;2022-07-06T09:14:41;101188.88;;;32.22
18713;BMP280;9485;49.386;8.674;2022-07-06T09:20:02;101187.13;;;32.28
18713;BMP280;9485;49.386;8.674;2022-07-06T09:25:25;101179.22;;;31.99
18713;BMP280;9485;49.386;8.674;2022-07-06T09:30:46;101179.97;;;31.88
18713;BMP280;9485;49.386;8.674;2022-07-06T09:36:07;101173.75;;;32.25
18713;BMP280;9485;49.386;8.674;2022-07-06T09:41:32;101185.56;;;32.71
18713;BMP280;9485;49.386;8.674;2022-07-06T09:46:56;101186.69;;;32.89
18713;BMP280;9485;49.386;8.674;2022-07-06T09:52:16;101195.47;;;32.89
18713;BMP280;9485;49.386;8.674;2022-07-06T09:57:39;101190.53;;;33.14
18713;BMP280;9485;49.386;8.674;2022-07-06T10:03:00;101194.59;;;33.21
18713;BMP280;9485;49.386;8.674;2022-07-06T10:08:21;101187.84;;;33.07
18713;BMP280;9485;49.386;8.674;2022-07-06T10:13:46;101196.13;;;33.10
18713;BMP280;9485;49.386;8.674;2022-07-06T10:19:09;101183.63;;;32.87
18713;BMP280;9485;49.386;8.674;2022-07-06T10:24:31;101182.09;;;32.86
18713;BMP280;9485;49.386;8.674;2022-07-06T10:29:55;101193.44;;;33.03
18713;BMP280;9485;49.386;8.674;2022-07-06T10:35:16;101184.56;;;33.12
18713;BMP280;9485;49.386;8.674;2022-07-06T10:40:40;101191.41;;;33.05
18713;BMP280;9485;49.386;8.674;2022-07-06T10:46:19;101193.81;;;32.86
18713;BMP280;9485;49.386;8.674;2022-07-06T10:51:40;101196.22;;;32.67
18713;BMP280;9485;49.386;8.674;2022-07-06T10:57:09;101188.75;;;32.98
18713;BMP280;9485;49.386;8.674;2022-07-06T11:02:38;101190.75;;;33.41
18713;BMP280;9485;49.386;8.674;2022-07-06T11:08:01;101194.69;;;33.46
18713;BMP280;9485;49.386;8.674;2022-07-06T11:13:26;101189.72;;;33.37
18713;BMP280;9485;49.386;8.674;2022-07-06T11:18:59;101187.44;;;33.01
18713;BMP280;9485;49.386;8.674;2022-07-06T11:24:24;101188.22;;;33.01
18713;BMP280;9485;49.386;8.674;2022-07-06T11:29:45;101185.81;;;32.98
18713;BMP280;9485;49.386;8.674;2022-07-06T11:35:08;101190.63;;;32.71
18713;BMP280;9485;49.386;8.674;2022-07-06T11:40:28;101172.19;;;32.68
18713;BMP280;9485;49.386;8.674;2022-07-06T11:45:49;101176.91;;;32.73
18713;BMP280;9485;49.386;8.674;2022-07-06T11:51:13;101177.66;;;32.62
18713;BMP280;9485;49.386;8.674;2022-07-06T11:56:35;101162.78;;;32.70
18713;BMP280;9485;49.386;8.674;2022-07-06T12:02:00;101160.25;;;32.64
18713;BMP280;9485;49.386;8.674;2022-07-06T12:07:22;101158.59;;;32.84
18713;BMP280;9485;49.386;8.674;2022-07-06T12:12:42;101141.03;;;33.07
18713;BMP280;9485;49.386;8.674;2022-07-06T12:18:03;101143.69;;;33.26
18713;BMP280;9485;49.386;8.674;2022-07-06T12:23:25;101145.91;;;33.50
18713;BMP280;9485;49.386;8.674;2022-07-06T12:28:59;101128.72;;;33.56
18713;BMP280;9485;49.386;8.674;2022-07-06T12:34:21;101134.25;;;33.75
18713;BMP280;9485;49.386;8.674;2022-07-06T12:39:46;101124.34;;;33.93
18713;BMP280;9485;49.386;8.674;2022-07-06T12:45:08;101122.66;;;34.02
18713;BMP280;9485;49.386;8.674;2022-07-06T12:50:33;101115.28;;;34.26
18713;BMP280;9485;49.386;8.674;2022-07-06T12:56:09;101102.84;;;34.52
18713;BMP280;9485;49.386;8.674;2022-07-06T13:01:30;101115.06;;;34.35
18713;BMP280;9485;49.386;8.674;2022-07-06T13:06:52;101110.28;;;34.28
18713;BMP280;9485;49.386;8.674;2022-07-06T13:12:14;101094.66;;;34.50
18713;BMP280;9485;49.386;8.674;2022-07-06T13:17:35;101098.22;;;35.14
18713;BMP280;9485;49.386;8.674;2022-07-06T13:22:57;101107.88;;;36.01
18713;BMP280;9485;49.386;8.674;2022-07-06T13:28:18;101100.09;;;36.67
18713;BMP280;9485;49.386;8.674;2022-07-06T13:33:39;101100.38;;;36.88
18713;BMP280;9485;49.386;8.674;2022-07-06T13:39:00;101106.38;;;37.23
18713;BMP280;9485;49.386;8.674;2022-07-06T13:44:22;101101.41;;;37.43
18713;BMP280;9485;49.386;8.674;2022-07-06T13:49:43;101096.88;;;37.75
18713;BMP280;9485;49.386;8.674;2022-07-06T13:55:08;101093.94;;;37.75
18713;BMP280;9485;49.386;8.674;2022-07-06T14:00:31;101086.44;;;37.55
18713;BMP280;9485;49.386;8.674;2022-07-06T14:05:51;101080.50;;;37.37
18713;BMP280;9485;49.386;8.674;2022-07-06T14:11:12;101074.75;;;36.60
18713;BMP280;9485;49.386;8.674;2022-07-06T14:16:35;101070.00;;;36.22
18713;BMP280;9485;49.386;8.674;2022-07-06T14:21:55;101063.00;;;35.85
18713;BMP280;9485;49.386;8.674;2022-07-06T14:27:16;101064.22;;;35.38
18713;BMP280;9485;49.386;8.674;2022-07-06T14:32:38;101055.47;;;34.98
18713;BMP280;9485;49.386;8.674;2022-07-06T14:37:59;101051.66;;;34.42
18713;BMP280;9485;49.386;8.674;2022-07-06T14:43:20;101053.50;;;33.47
18713;BMP280;9485;49.386;8.674;2022-07-06T14:48:42;101031.09;;;32.56
18713;BMP280;9485;49.386;8.674;2022-07-06T14:54:02;101029.47;;;31.87
18713;BMP280;9485;49.386;8.674;2022-07-06T14:59:23;101035.41;;;31.13
18713;BMP280;9485;49.386;8.674;2022-07-06T15:04:45;101021.69;;;30.52
18713;BMP280;9485;49.386;8.674;2022-07-06T15:10:07;101022.19;;;30.00
18713;BMP280;9485;49.386;8.674;2022-07-06T15:15:28;101013.09;;;29.66
18713;BMP280;9485;49.386;8.674;2022-07-06T15:20:51;100997.19;;;29.29
18713;BMP280;9485;49.386;8.674;2022-07-06T15:26:12;100998.59;;;28.90
18713;BMP280;9485;49.386;8.674;2022-07-06T15:31:32;101003.75;;;28.73
18713;BMP280;9485;49.386;8.674;2022-07-06T15:36:55;100986.16;;;28.61
18713;BMP280;9485;49.386;8.674;2022-07-06T15:42:16;100980.59;;;28.37
18713;BMP280;9485;49.386;8.674;2022-07-06T15:47:39;100977.22;;;28.21
18713;BMP280;9485;49.386;8.674;2022-07-06T15:53:01;100971.75;;;28.09
18713;BMP280;9485;49.386;8.674;2022-07-06T15:58:23;100975.25;;;27.98
18713;BMP280;9485;49.386;8.674;2022-07-06T16:03:43;100974.28;;;27.86
18713;BMP280;9485;49.386;8.674;2022-07-06T16:09:05;100972.28;;;27.79
18713;BMP280;9485;49.386;8.674;2022-07-06T16:14:26;100967.00;;;27.68
18713;BMP280;9485;49.386;8.674;2022-07-06T16:19:47;100970.72;;;27.51
18713;BMP280;9485;49.386;8.674;2022-07-06T16:25:09;100973.06;;;27.36
18713;BMP280;9485;49.386;8.674;2022-07-06T16:30:30;100977.53;;;27.20
18713;BMP280;9485;49.386;8.674;2022-07-06T16:35:51;100976.59;;;27.01
18713;BMP280;9485;49.386;8.674;2022-07-06T16:41:13;100972.25;;;26.92
18713;BMP280;9485;49.386;8.674;2022-07-06T16:46:34;100983.75;;;26.83
18713;BMP280;9485;49.386;8.674;2022-07-06T16:51:54;100989.91;;;26.70
18713;BMP280;9485;49.386;8.674;2022-07-06T16:57:16;100988.34;;;26.52
18713;BMP280;9485;49.386;8.674;2022-07-06T17:02:37;100991.00;;;26.33
18713;BMP280;9485;49.386;8.674;2022-07-06T17:07:58;100986.91;;;26.19
18713;BMP280;9485;49.386;8.674;2022-07-06T17:13:20;100984.31;;;26.06
18713;BMP280;9485;49.386;8.674;2022-07-06T17:18:41;100980.16;;;25.92
18713;BMP280;9485;49.386;8.674;2022-07-06T17:24:02;100988.78;;;25.76
18713;BMP280;9485;49.386;8.674;2022-07-06T17:29:26;100990.22;;;25.60
18713;BMP280;9485;49.386;8.674;2022-07-06T17:34:46;101001.47;;;25.48
18713;BMP280;9485;49.386;8.674;2022-07-06T17:40:09;100995.56;;;25.39
18713;BMP280;9485;49.386;8.674;2022-07-06T17:45:31;100998.66;;;25.33
18713;BMP280;9485;49.386;8.674;2022-07-06T17:50:53;100996.91;;;25.30
18713;BMP280;9485;49.386;8.674;2022-07-06T17:56:14;100997.72;;;25.23
18713;BMP280;9485;49.386;8.674;2022-07-06T18:01:37;101003.34;;;25.21
18713;BMP280;9485;49.386;8.674;2022-07-06T18:06:58;100995.84;;;25.18
18713;BMP280;9485;49.386;8.674;2022-07-06T18:12:19;100995.69;;;25.09
18713;BMP280;9485;49.386;8.674;2022-07-06T18:17:41;101001.44;;;25.01
18713;BMP280;9485;49.386;8.674;2022-07-06T18:23:01;101000.94;;;24.88
18713;BMP280;9485;49.386;8.674;2022-07-06T18:28:23;101003.88;;;24.66
18713;BMP280;9485;49.386;8.674;2022-07-06T18:33:45;100992.75;;;24.47
18713;BMP280;9485;49.386;8.674;2022-07-06T18:39:06;100996.00;;;24.29
18713;BMP280;9485;49.386;8.674;2022-07-06T18:44:27;100998.16;;;24.14
18713;BMP280;9485;49.386;8.674;2022-07-06T18:49:49;101008.13;;;23.98
18713;BMP280;9485;49.386;8.674;2022-07-06T18:55:09;101010.78;;;23.81
18713;BMP280;9485;49.386;8.674;2022-07-06T19:00:30;101018.03;;;23.67
18713;BMP280;9485;49.386;8.674;2022-07-06T19:05:52;101027.59;;;23.47
18713;BMP280;9485;49.386;8.674;2022-07-06T19:11:14;101022.94;;;23.29
18713;BMP280;9485;49.386;8.674;2022-07-06T19:16:34;101015.00;;;23.15
18713;BMP280;9485;49.386;8.674;2022-07-06T19:21:57;101020.09;;;23.01
18713;BMP280;9485;49.386;8.674;2022-07-06T19:27:18;101015.25;;;22.89
18713;BMP280;9485;49.386;8.674;2022-07-06T19:32:39;101024.75;;;22.76
18713;BMP280;9485;49.386;8.674;2022-07-06T19:38:01;101024.88;;;22.64
18713;BMP280;9485;49.386;8.674;2022-07-06T19:43:22;101026.53;;;22.52
18713;BMP280;9485;49.386;8.674;2022-07-06T19:48:42;101026.28;;;22.42
18713;BMP280;9485;49.386;8.674;2022-07-06T19:54:04;101021.59;;;22.32
18713;BMP280;9485;49.386;8.674;2022-07-06T19:59:25;101029.50;;;22.18
18713;BMP280;9485;49.386;8.674;2022-07-06T20:04:47;101033.44;;;22.08
18713;BMP280;9485;49.386;8.674;2022-07-06T20:10:10;101038.91;;;21.98
18713;BMP280;9485;49.386;8.674;2022-07-06T20:15:30;101042.59;;;21.86
18713;BMP280;9485;49.386;8.674;2022-07-06T20:20:51;101044.63;;;21.78
18713;BMP280;9485;49.386;8.674;2022-07-06T20:26:14;101038.41;;;21.67
18713;BMP280;9485;49.386;8.674;2022-07-06T20:31:34;101047.06;;;21.54
18713;BMP280;9485;49.386;8.674;2022-07-06T20:36:55;101044.75;;;21.39
18713;BMP280;9485;49.386;8.674;2022-07-06T20:42:17;101053.19;;;21.24
18713;BMP280;9485;49.386;8.674;2022-07-06T20:47:38;101051.25;;;21.07
18713;BMP280;9485;49.386;8.674;2022-07-06T20:52:58;101055.31;;;20.85
18713;BMP280;9485;49.386;8.674;2022-07-06T20:58:21;101053.00;;;20.71
18713;BMP280;9485;49.386;8.674;2022-07-06T21:03:42;101052.19;;;20.57
18713;BMP280;9485;49.386;8.674;2022-07-06T21:09:03;101054.75;;;20.48
18713;BMP280;9485;49.386;8.674;2022-07-06T21:14:25;101057.03;;;20.37
18713;BMP280;9485;49.386;8.674;2022-07-06T21:19:46;101048.41;;;20.24
18713;BMP280;9485;49.386;8.674;2022-07-06T21:25:08;101050.13;;;20.14
18713;BMP280;9485;49.386;8.674;2022-07-06T21:30:31;101037.56;;;20.04
18713;BMP280;9485;49.386;8.674;2022-07-06T21:35:51;101037.22;;;19.94
18713;BMP280;9485;49.386;8.674;2022-07-06T21:41:12;101033.97;;;19.85
18713;BMP280;9485;49.386;8.674;2022-07-06T21:46:34;101040.00;;;19.81
18713;BMP280;9485;49.386;8.674;2022-07-06T21:51:54;101048.69;;;19.76
18713;BMP280;9485;49.386;8.674;2022-07-06T21:57:14;101051.63;;;19.70
18713;BMP280;9485;49.386;8.674;2022-07-06T22:02:37;101041.47;;;19.69
18713;BMP280;9485;49.386;8.674;2022-07-06T22:07:58;101035.00;;;19.69
18713;BMP280;9485;49.386;8.674;2022-07-06T22:13:18;101044.34;;;19.69
18713;BMP280;9485;49.386;8.674;2022-07-06T22:18:58;101041.47;;;19.69
18713;BMP280;9485;49.386;8.674;2022-07-06T22:24:19;101029.19;;;19.74
18713;BMP280;9485;49.386;8.674;2022-07-06T22:29:40;101040.75;;;19.82
18713;BMP280;9485;49.386;8.674;2022-07-06T22:35:02;101042.00;;;19.86
18713;BMP280;9485;49.386;8.674;2022-07-06T22:40:22;101031.75;;;19.91
18713;BMP280;9485;49.386;8.674;2022-07-06T22:46:01;101022.09;;;19.94
18713;BMP280;9485;49.386;8.674;2022-07-06T22:51:24;101026.97;;;19.99
18713;BMP280;9485;49.386;8.674;2022-07-06T22:56:45;101040.97;;;20.02
18713;BMP280;9485;49.386;8.674;2022-07-06T23:02:06;101032.06;;;20.06
18713;BMP280;9485;49.386;8.674;2022-07-06T23:07:28;101026.84;;;20.04
18713;BMP280;9485;49.386;8.674;2022-07-06T23:12:49;101026.09;;;20.04
18713;BMP280;9485;49.386;8.674;2022-07-06T23:18:10;101026.31;;;20.06
18713;BMP280;9485;49.386;8.674;2022-07-06T23:23:33;101019.47;;;20.09
18713;BMP280;9485;49.386;8.674;2022-07-06T23:28:53;101020.72;;;20.13
18713;BMP280;9485;49.386;8.674;2022-07-06T23:34:14;101013.88;;;20.16
18713;BMP280;9485;49.386;8.674;2022-07-06T23:39:36;101015.41;;;20.17
18713;BMP280;9485;49.386;8.674;2022-07-06T23:44:57;101013.56;;;20.20
18713;BMP280;9485;49.386;8.674;2022-07-06T23:50:17;101008.25;;;20.24
18713;BMP280;9485;49.386;8.674;2022-07-06T23:55:39;101007.19;;;20.27
